Time;durP1;ratioP1;P1;durP2;ratioP2;P2;SDS_P1;SDS_P2;PMS_P1;PMS_P2;Temp;Humidity;BMP_temperature;BMP_pressure;BME280_temperature;BME280_humidity;BME280_pressure;Samples;Min_cycle;Max_cycle;Signal;HPM_P1;HPM_P2
2022/10/08 00:01:53;;;;;;;6.93;6.33;;;11.00;1.00;;;;;;6330752;27;20232;-53
2022/10/08 00:04:56;;;;;;;7.17;6.53;;;10.90;1.00;;;;;;6334913;27;20231;-54
2022/10/08 00:08:00;;;;;;;6.80;6.30;;;10.90;1.00;;;;;;6324141;27;20236;-54
2022/10/08 00:11:06;;;;;;;7.13;6.53;;;10.90;1.00;;;;;;6333116;27;20590;-54
2022/10/08 00:14:10;;;;;;;7.70;7.10;;;10.80;1.00;;;;;;6335100;27;20289;-53
2022/10/08 00:17:13;;;;;;;7.27;6.67;;;10.90;1.00;;;;;;6335094;27;20948;-54
2022/10/08 00:20:16;;;;;;;7.20;6.60;;;10.80;1.00;;;;;;6320125;27;20252;-54
2022/10/08 00:23:18;;;;;;;8.13;7.50;;;10.80;1.00;;;;;;6327378;27;20401;-53
2022/10/08 00:26:23;;;;;;;7.70;7.10;;;10.70;1.00;;;;;;6335195;28;20657;-56
2022/10/08 00:29:27;;;;;;;7.93;7.33;;;10.70;1.00;;;;;;6311639;27;20237;-54
2022/10/08 00:32:30;;;;;;;7.00;6.50;;;10.70;1.00;;;;;;6312564;28;20466;-54
2022/10/08 00:35:37;;;;;;;6.97;6.50;;;10.70;1.00;;;;;;6335127;27;20822;-54
2022/10/08 00:38:40;;;;;;;7.20;6.60;;;10.70;1.00;;;;;;6318642;28;20224;-53
2022/10/08 00:41:45;;;;;;;9.80;7.63;;;10.70;1.00;;;;;;6333715;28;20485;-53
2022/10/08 00:44:55;;;;;;;7.07;6.37;;;10.60;1.00;;;;;;6320717;28;20224;-54
2022/10/08 00:47:58;;;;;;;8.17;7.50;;;10.60;1.00;;;;;;6309017;28;20244;-54
2022/10/08 00:51:01;;;;;;;7.50;7.00;;;10.60;1.00;;;;;;6323484;27;20235;-54
2022/10/08 00:54:05;;;;;;;7.60;6.83;;;10.60;1.00;;;;;;6317341;27;20243;-53
2022/10/08 00:57:08;;;;;;;7.27;6.77;;;10.60;1.00;;;;;;6322738;28;20247;-52
2022/10/08 01:00:16;;;;;;;8.00;7.40;;;10.50;1.00;;;;;;6332562;27;20236;-55
2022/10/08 01:03:19;;;;;;;9.13;8.33;;;10.50;1.00;;;;;;6330326;27;20236;-54
2022/10/08 01:06:27;;;;;;;8.37;7.63;;;10.60;1.00;;;;;;6333772;27;20232;-53
2022/10/08 01:09:35;;;;;;;8.17;7.37;;;10.50;1.00;;;;;;6332834;27;20224;-54
2022/10/08 01:12:46;;;;;;;8.47;7.70;;;10.50;1.00;;;;;;6311529;28;20358;-52
2022/10/08 01:16:00;;;;;;;7.83;7.13;;;10.50;1.00;;;;;;6307938;28;20592;-54
2022/10/08 01:19:23;;;;;;;9.00;8.10;;;10.50;1.00;;;;;;6308241;28;20244;-53
2022/10/08 01:22:38;;;;;;;7.97;7.30;;;10.50;1.00;;;;;;6325748;27;20240;-54
2022/10/08 01:25:52;;;;;;;7.87;7.27;;;10.50;1.00;;;;;;6332927;28;20236;-52
2022/10/08 01:29:02;;;;;;;7.30;6.80;;;10.60;1.00;;;;;;6328868;27;20235;-53
2022/10/08 01:32:12;;;;;;;8.00;7.37;;;10.40;1.00;;;;;;6308077;28;20247;-53
2022/10/08 01:35:19;;;;;;;7.33;6.73;;;10.50;1.00;;;;;;6332935;27;20228;-54
2022/10/08 01:38:26;;;;;;;7.57;6.90;;;10.50;1.00;;;;;;6332883;27;20235;-54
2022/10/08 01:41:32;;;;;;;9.63;7.97;;;10.50;1.00;;;;;;6307864;28;20498;-53
2022/10/08 01:44:39;;;;;;;8.07;7.27;;;10.50;1.00;;;;;;6308230;28;20229;-55
2022/10/08 01:47:44;;;;;;;9.03;8.13;;;10.50;1.00;;;;;;6308493;28;20244;-54
2022/10/08 01:50:54;;;;;;;8.97;8.17;;;10.50;1.00;;;;;;6321738;27;20250;-54
2022/10/08 01:53:58;;;;;;;8.77;7.47;;;10.60;1.00;;;;;;6333126;28;20243;-54
2022/10/08 01:57:04;;;;;;;9.40;7.87;;;10.60;1.00;;;;;;6329297;27;20233;-53
2022/10/08 02:00:12;;;;;;;8.47;7.67;;;10.60;1.00;;;;;;6331185;27;20818;-53
2022/10/08 02:03:15;;;;;;;7.90;7.20;;;10.60;1.00;;;;;;6333129;28;20232;-54
2022/10/08 02:06:18;;;;;;;7.97;7.27;;;10.60;1.00;;;;;;6323789;28;20243;-54
2022/10/08 02:09:23;;;;;;;7.40;6.83;;;10.60;1.00;;;;;;6333917;27;20735;-54
2022/10/08 02:12:25;;;;;;;9.23;8.13;;;10.60;1.00;;;;;;6338361;27;20243;-53
2022/10/08 02:15:38;;;;;;;11.13;9.60;;;10.60;1.00;;;;;;6320268;28;20728;-54
2022/10/08 02:18:46;;;;;;;10.50;8.70;;;10.60;1.00;;;;;;6312857;28;20229;-54
2022/10/08 02:21:51;;;;;;;9.37;8.17;;;10.60;1.00;;;;;;6328053;27;20232;-53
2022/10/08 02:24:59;;;;;;;13.10;9.63;;;10.60;1.00;;;;;;6312771;28;20400;-54
2022/10/08 02:28:10;;;;;;;10.87;9.47;;;10.70;1.00;;;;;;6313144;28;20772;-52
2022/10/08 02:31:20;;;;;;;10.20;9.23;;;10.70;1.00;;;;;;6313297;28;20240;-54
2022/10/08 02:34:27;;;;;;;11.10;10.10;;;10.70;1.00;;;;;;6325657;27;20256;-52
2022/10/08 02:37:36;;;;;;;13.63;9.90;;;10.70;1.00;;;;;;6337338;27;20220;-54
2022/10/08 02:40:42;;;;;;;9.87;8.90;;;10.70;1.00;;;;;;6337246;27;20232;-54
2022/10/08 02:43:48;;;;;;;10.87;9.67;;;10.80;1.00;;;;;;6322056;28;20270;-54
2022/10/08 02:46:57;;;;;;;9.00;8.10;;;10.80;1.00;;;;;;6313261;28;20225;-54
2022/10/08 02:50:03;;;;;;;9.23;7.87;;;10.80;1.00;;;;;;6319993;27;20805;-54
2022/10/08 02:53:06;;;;;;;10.23;9.23;;;10.80;1.00;;;;;;6336920;27;20397;-54
2022/10/08 02:56:14;;;;;;;10.60;9.17;;;10.70;1.00;;;;;;6337575;28;20747;-55
2022/10/08 02:59:19;;;;;;;9.67;8.63;;;10.70;1.00;;;;;;6333149;27;20794;-54
2022/10/08 03:02:31;;;;;;;12.50;9.83;;;10.80;1.00;;;;;;6312589;27;20638;-53
2022/10/08 03:05:36;;;;;;;9.77;9.03;;;10.80;1.00;;;;;;6336823;27;20593;-52
2022/10/08 03:08:45;;;;;;;11.87;9.70;;;10.80;1.00;;;;;;6323770;28;20721;-55
2022/10/08 03:11:48;;;;;;;10.73;9.67;;;10.80;1.00;;;;;;6311882;28;20247;-54
2022/10/08 03:14:52;;;;;;;10.57;9.53;;;10.80;1.00;;;;;;6333026;27;20239;-54
2022/10/08 03:17:57;;;;;;;10.20;9.20;;;10.80;1.00;;;;;;6338065;27;20483;-54
2022/10/08 03:21:00;;;;;;;11.30;9.57;;;10.80;1.00;;;;;;6335650;27;20243;-52
2022/10/08 03:24:03;;;;;;;9.83;8.83;;;11.00;1.00;;;;;;6325335;28;20251;-56
2022/10/08 03:27:06;;;;;;;9.20;8.47;;;10.70;1.00;;;;;;6339102;27;20251;-54
2022/10/08 03:30:11;;;;;;;9.87;8.97;;;10.80;1.00;;;;;;6337768;27;20724;-54
2022/10/08 03:33:15;;;;;;;11.83;9.03;;;10.80;1.00;;;;;;6326793;27;20469;-53
2022/10/08 03:36:18;;;;;;;11.57;9.33;;;10.80;1.00;;;;;;6340424;27;20247;-53
2022/10/08 03:39:21;;;;;;;13.87;10.17;;;10.80;1.00;;;;;;6331353;27;20237;-53
2022/10/08 03:42:23;;;;;;;10.10;9.07;;;10.80;1.00;;;;;;6329917;27;20236;-54
2022/10/08 03:45:26;;;;;;;9.97;9.17;;;10.80;1.00;;;;;;6320507;27;20240;-53
2022/10/08 03:48:31;;;;;;;9.10;8.30;;;10.80;1.00;;;;;;6334786;27;20471;-53
2022/10/08 03:51:34;;;;;;;9.10;8.30;;;10.80;1.00;;;;;;6333080;27;20232;-54
2022/10/08 03:54:37;;;;;;;9.10;8.30;;;10.80;1.00;;;;;;6335341;27;20279;-55
2022/10/08 03:57:40;;;;;;;9.67;8.90;;;10.80;1.00;;;;;;6332381;27;20252;-54
2022/10/08 04:00:43;;;;;;;9.53;8.53;;;10.80;1.00;;;;;;6329792;27;20246;-54
2022/10/08 04:03:47;;;;;;;10.33;8.40;;;10.80;1.00;;;;;;6336450;27;20762;-54
2022/10/08 04:06:49;;;;;;;9.17;8.50;;;10.80;1.00;;;;;;6330115;27;20365;-54
2022/10/08 04:09:52;;;;;;;10.03;9.03;;;10.90;1.00;;;;;;6341188;27;20778;-54
2022/10/08 04:12:55;;;;;;;8.90;8.27;;;10.90;1.00;;;;;;6332087;27;20239;-54
2022/10/08 04:16:01;;;;;;;7.93;7.27;;;10.90;1.00;;;;;;6335112;27;20259;-54
2022/10/08 04:19:05;;;;;;;8.57;7.40;;;11.00;1.00;;;;;;6329191;27;20232;-53
2022/10/08 04:22:08;;;;;;;10.03;8.47;;;11.00;1.00;;;;;;6332132;27;20243;-53
2022/10/08 04:25:11;;;;;;;7.07;6.57;;;10.90;1.00;;;;;;6329524;27;20256;-53
2022/10/08 04:28:13;;;;;;;8.50;7.77;;;11.00;1.00;;;;;;6323354;27;20232;-54
2022/10/08 04:31:20;;;;;;;8.80;8.10;;;11.00;1.00;;;;;;6339834;27;20234;-53
2022/10/08 04:34:24;;;;;;;7.60;7.20;;;10.90;1.00;;;;;;6331160;27;20243;-53
2022/10/08 04:37:27;;;;;;;8.17;7.30;;;10.90;1.00;;;;;;6330192;27;20239;-55
2022/10/08 04:40:30;;;;;;;8.30;7.67;;;10.90;1.00;;;;;;6334235;27;20235;-53
2022/10/08 04:43:33;;;;;;;7.77;7.17;;;10.90;1.00;;;;;;6334750;27;20246;-54
2022/10/08 04:46:35;;;;;;;7.90;7.30;;;10.90;1.00;;;;;;6325245;27;20237;-54
2022/10/08 04:49:40;;;;;;;7.23;6.73;;;10.80;1.00;;;;;;6335611;27;20782;-53
2022/10/08 04:52:42;;;;;;;6.43;6.03;;;10.80;1.00;;;;;;6333104;27;20762;-54
2022/10/08 04:55:45;;;;;;;7.43;7.03;;;10.80;1.00;;;;;;6321822;27;20818;-55
2022/10/08 04:58:48;;;;;;;8.20;7.63;;;10.70;1.00;;;;;;6322151;28;20278;-54
2022/10/08 05:01:55;;;;;;;7.60;7.00;;;10.70;1.00;;;;;;6334242;27;20227;-54
2022/10/08 05:04:59;;;;;;;7.87;7.17;;;10.60;1.00;;;;;;6333252;27;20316;-54
2022/10/08 05:08:02;;;;;;;7.23;6.67;;;10.60;1.00;;;;;;6327962;27;20724;-54
2022/10/08 05:11:05;;;;;;;8.40;7.60;;;10.60;1.00;;;;;;6332709;27;20613;-53
2022/10/08 05:14:08;;;;;;;8.50;7.83;;;10.50;1.00;;;;;;6331638;27;20247;-54
2022/10/08 05:17:11;;;;;;;7.50;7.10;;;10.50;1.00;;;;;;6330369;27;20704;-53
2022/10/08 05:20:16;;;;;;;6.97;6.57;;;10.50;1.00;;;;;;6334561;27;20318;-52
2022/10/08 05:23:18;;;;;;;7.83;7.17;;;10.50;1.00;;;;;;6331813;27;20614;-54
2022/10/08 05:26:24;;;;;;;7.00;6.60;;;10.40;1.00;;;;;;6332570;27;20605;-53
2022/10/08 05:29:47;;;;;;;7.20;6.63;;;10.40;1.00;;;;;;6322989;27;20228;-53
2022/10/08 05:32:49;;;;;;;7.53;7.03;;;10.40;1.00;;;;;;6337774;27;20223;-54
2022/10/08 05:35:53;;;;;;;7.57;6.87;;;10.40;1.00;;;;;;6333469;27;20267;-53
2022/10/08 05:38:59;;;;;;;7.47;6.87;;;10.40;1.00;;;;;;6332780;27;20263;-55
2022/10/08 05:42:01;;;;;;;8.63;7.93;;;10.40;1.00;;;;;;6331781;27;20232;-52
2022/10/08 05:45:06;;;;;;;8.73;8.13;;;10.40;1.00;;;;;;6335300;27;20236;-52
2022/10/08 05:48:09;;;;;;;7.37;6.93;;;10.40;1.00;;;;;;6328947;27;20228;-54
2022/10/08 05:51:15;;;;;;;8.00;7.30;;;10.40;1.00;;;;;;6336700;27;20235;-53
2022/10/08 05:54:18;;;;;;;7.70;7.27;;;10.30;1.00;;;;;;6337187;27;20476;-53
2022/10/08 05:57:21;;;;;;;8.97;8.07;;;10.30;1.00;;;;;;6338012;27;20232;-53
2022/10/08 06:00:24;;;;;;;11.83;8.50;;;10.30;1.00;;;;;;6335551;27;20377;-54
2022/10/08 06:03:27;;;;;;;10.43;8.47;;;10.30;1.00;;;;;;6334845;27;20313;-54
2022/10/08 06:06:31;;;;;;;9.00;8.23;;;10.40;1.00;;;;;;6339089;27;20708;-53
2022/10/08 06:09:34;;;;;;;9.47;8.17;;;10.40;1.00;;;;;;6336449;27;20228;-54
2022/10/08 06:12:37;;;;;;;8.07;7.47;;;10.40;1.00;;;;;;6340411;27;20466;-53
2022/10/08 06:15:40;;;;;;;8.40;7.70;;;10.40;1.00;;;;;;6334735;28;20246;-54
2022/10/08 06:18:42;;;;;;;7.53;6.93;;;10.40;1.00;;;;;;6337679;27;20661;-52
2022/10/08 06:21:47;;;;;;;8.17;7.67;;;10.40;1.00;;;;;;6341248;27;20748;-53
2022/10/08 06:24:49;;;;;;;7.80;7.07;;;10.40;1.00;;;;;;6340254;27;20857;-53
2022/10/08 06:27:52;;;;;;;9.13;8.30;;;10.40;1.00;;;;;;6343984;27;20243;-53
2022/10/08 06:30:55;;;;;;;10.20;9.20;;;10.40;1.00;;;;;;6337029;27;20232;-53
2022/10/08 06:33:59;;;;;;;8.57;7.87;;;10.40;1.00;;;;;;6332789;27;20228;-54
2022/10/08 06:37:03;;;;;;;9.63;8.67;;;10.50;1.00;;;;;;6336982;27;20779;-54
2022/10/08 06:40:06;;;;;;;9.17;8.37;;;10.50;1.00;;;;;;6337109;27;20473;-53
2022/10/08 06:43:13;;;;;;;9.63;8.80;;;10.50;1.00;;;;;;6339720;27;20591;-52
2022/10/08 06:46:16;;;;;;;8.20;7.47;;;10.60;1.00;;;;;;6337407;27;20228;-55
2022/10/08 06:49:21;;;;;;;9.07;8.27;;;10.60;1.00;;;;;;6333071;27;20254;-53
2022/10/08 06:52:25;;;;;;;9.17;8.33;;;10.60;1.00;;;;;;6325680;28;20236;-55
2022/10/08 06:55:28;;;;;;;9.30;8.60;;;10.70;1.00;;;;;;6336146;27;20231;-52
2022/10/08 06:58:31;;;;;;;11.10;9.93;;;10.70;1.00;;;;;;6347411;27;20246;-55
2022/10/08 07:01:34;;;;;;;10.07;9.17;;;10.80;1.00;;;;;;6333447;27;20247;-52
2022/10/08 07:04:38;;;;;;;11.70;9.47;;;10.80;1.00;;;;;;6324150;27;20264;-53
2022/10/08 07:07:42;;;;;;;10.80;9.80;;;10.90;1.00;;;;;;6341466;27;20232;-54
2022/10/08 07:10:45;;;;;;;14.97;9.87;;;11.00;1.00;;;;;;6333536;27;20251;-54
2022/10/08 07:13:48;;;;;;;16.53;9.80;;;11.20;1.00;;;;;;6334294;27;20227;-54
2022/10/08 07:16:51;;;;;;;11.47;10.37;;;11.20;1.00;;;;;;6341689;27;20250;-54
2022/10/08 07:19:54;;;;;;;14.80;9.73;;;11.30;1.00;;;;;;6339314;27;21200;-53
2022/10/08 07:22:59;;;;;;;11.60;8.53;;;11.40;1.00;;;;;;6340259;27;20239;-54
2022/10/08 07:26:04;;;;;;;15.43;8.77;;;11.50;1.00;;;;;;6335337;27;20382;-55
2022/10/08 07:29:08;;;;;;;10.50;8.57;;;11.50;1.00;;;;;;6335261;27;20231;-53
2022/10/08 07:32:11;;;;;;;10.90;8.53;;;11.50;1.00;;;;;;6342644;27;20247;-52
2022/10/08 07:35:14;;;;;;;10.47;8.33;;;11.70;1.00;;;;;;6333913;27;20705;-52
2022/10/08 07:38:18;;;;;;;12.23;9.07;;;11.80;1.00;;;;;;6325990;28;20263;-53
2022/10/08 07:41:21;;;;;;;9.60;7.80;;;11.90;1.00;;;;;;6335444;27;20247;-54
2022/10/08 07:44:24;;;;;;;13.83;8.53;;;12.10;1.00;;;;;;6331615;27;20240;-54
2022/10/08 07:47:27;;;;;;;9.50;8.17;;;12.10;1.00;;;;;;6326510;27;20261;-54
2022/10/08 07:50:29;;;;;;;9.97;7.40;;;12.20;1.00;;;;;;6335985;27;20243;-54
2022/10/08 07:53:34;;;;;;;9.73;7.57;;;12.30;1.00;;;;;;6335055;27;20259;-54
2022/10/08 07:56:37;;;;;;;8.00;7.07;;;12.50;1.00;;;;;;6341239;27;20235;-54
2022/10/08 07:59:40;;;;;;;10.87;7.30;;;12.60;1.00;;;;;;6336407;27;20461;-54
2022/10/08 08:02:43;;;;;;;7.57;6.97;;;12.70;1.00;;;;;;6317195;27;20646;-53
2022/10/08 08:05:46;;;;;;;15.70;7.10;;;12.80;1.00;;;;;;6321599;27;20701;-52
2022/10/08 08:08:51;;;;;;;12.13;6.53;;;13.00;1.00;;;;;;6323850;27;20224;-53
2022/10/08 08:11:53;;;;;;;7.47;6.70;;;13.10;1.00;;;;;;6334800;27;20754;-54
2022/10/08 08:14:56;;;;;;;6.80;5.70;;;13.20;1.00;;;;;;6325422;27;20232;-56
2022/10/08 08:17:59;;;;;;;7.77;6.23;;;13.40;1.00;;;;;;6338352;27;20235;-55
2022/10/08 08:21:04;;;;;;;9.03;5.67;;;13.50;1.00;;;;;;6323267;27;20247;-55
2022/10/08 08:24:11;;;;;;;11.37;5.67;;;13.70;1.00;;;;;;6326420;27;20928;-55
2022/10/08 08:27:13;;;;;;;9.73;5.47;;;13.80;1.00;;;;;;6328871;27;20240;-54
2022/10/08 08:30:16;;;;;;;8.67;5.53;;;13.90;1.00;;;;;;6330997;27;20223;-55
2022/10/08 08:33:19;;;;;;;9.10;4.83;;;14.00;1.00;;;;;;6320740;27;20618;-54
2022/10/08 08:36:26;;;;;;;4.23;4.03;;;14.20;1.00;;;;;;6329202;27;20240;-53
2022/10/08 08:39:30;;;;;;;6.03;4.17;;;14.30;1.00;;;;;;6338946;27;20239;-53
2022/10/08 08:42:46;;;;;;;6.27;3.87;;;14.40;1.00;;;;;;6333605;27;20236;-54
2022/10/08 08:45:49;;;;;;;13.00;4.53;;;14.60;1.00;;;;;;6329809;27;20236;-53
2022/10/08 08:48:55;;;;;;;9.17;4.70;;;14.70;1.00;;;;;;6333679;27;20606;-54
2022/10/08 08:52:00;;;;;;;9.50;4.87;;;14.80;1.00;;;;;;6333290;27;20466;-54
2022/10/08 08:55:14;;;;;;;10.27;4.93;;;14.90;1.00;;;;;;6334213;27;20446;-55
2022/10/08 08:58:27;;;;;;;10.03;4.37;;;15.10;1.00;;;;;;6328551;28;20232;-53
2022/10/08 09:01:34;;;;;;;9.07;4.43;;;15.10;1.00;;;;;;6334658;27;20712;-54
2022/10/08 09:04:42;;;;;;;8.07;4.70;;;15.20;1.00;;;;;;6330506;27;20642;-54
2022/10/08 09:07:51;;;;;;;6.77;4.53;;;15.30;1.00;;;;;;6329984;27;20232;-53
2022/10/08 09:10:58;;;;;;;5.70;4.33;;;15.40;1.00;;;;;;6331007;27;20232;-54
2022/10/08 09:14:13;;;;;;;11.00;4.73;;;15.40;1.00;;;;;;6332013;27;20747;-54
2022/10/08 09:17:18;;;;;;;7.93;5.07;;;15.50;1.00;;;;;;6334582;27;20221;-55
2022/10/08 09:20:24;;;;;;;12.37;4.70;;;15.40;1.00;;;;;;6337189;27;20228;-53
2022/10/08 09:23:27;;;;;;;12.53;5.10;;;15.50;1.00;;;;;;6337738;27;20611;-54
2022/10/08 09:26:33;;;;;;;6.87;4.50;;;15.60;1.00;;;;;;6327788;28;21126;-53
2022/10/08 09:29:37;;;;;;;6.17;4.40;;;15.60;1.00;;;;;;6335167;27;20261;-55
2022/10/08 09:32:40;;;;;;;12.97;4.50;;;15.70;1.00;;;;;;6318269;27;20416;-54
2022/10/08 09:35:45;;;;;;;14.90;4.73;;;15.90;1.00;;;;;;6330391;27;20265;-55
2022/10/08 09:38:58;;;;;;;9.77;5.10;;;16.00;1.00;;;;;;6331759;27;20259;-55
2022/10/08 09:42:16;;;;;;;9.23;5.70;;;16.10;1.00;;;;;;6323395;27;20709;-54
2022/10/08 09:45:33;;;;;;;10.83;5.83;;;16.10;1.00;;;;;;6329686;27;20401;-53
2022/10/08 09:48:38;;;;;;;7.50;5.50;;;16.10;1.00;;;;;;6327350;27;20569;-53
2022/10/08 09:51:41;;;;;;;12.57;5.80;;;15.90;1.00;;;;;;6337129;27;20269;-54
2022/10/08 09:54:48;;;;;;;7.83;5.73;;;15.90;1.00;;;;;;6326816;27;20228;-54
2022/10/08 09:57:59;;;;;;;14.37;6.23;;;16.00;1.00;;;;;;6319561;27;20473;-55
2022/10/08 10:01:05;;;;;;;9.47;5.40;;;16.20;1.00;;;;;;6326234;27;20733;-53
2022/10/08 10:04:19;;;;;;;8.97;5.30;;;16.20;1.00;;;;;;6328696;27;20309;-53
2022/10/08 10:07:23;;;;;;;7.77;5.77;;;16.10;1.00;;;;;;6327018;27;20220;-53
2022/10/08 10:10:28;;;;;;;10.40;5.40;;;16.10;1.00;;;;;;6328482;28;20232;-54
2022/10/08 10:13:37;;;;;;;7.97;4.90;;;16.10;1.00;;;;;;6319685;27;20490;-56
2022/10/08 10:16:43;;;;;;;8.03;4.40;;;16.40;1.00;;;;;;6319512;27;20623;-54
2022/10/08 10:19:52;;;;;;;7.50;4.13;;;16.50;1.00;;;;;;6329910;27;20227;-54
2022/10/08 10:22:59;;;;;;;5.23;4.80;;;16.60;1.00;;;;;;6331896;27;20597;-54
2022/10/08 10:26:08;;;;;;;6.73;4.23;;;16.60;1.00;;;;;;6322606;27;20224;-55
2022/10/08 10:29:17;;;;;;;9.97;4.77;;;16.60;1.00;;;;;;6331819;27;20721;-54
2022/10/08 10:32:23;;;;;;;6.57;4.80;;;16.50;1.00;;;;;;6337958;27;20240;-54
2022/10/08 10:35:35;;;;;;;10.37;4.97;;;16.20;1.00;;;;;;6341603;27;20694;-55
2022/10/08 10:38:40;;;;;;;7.37;5.13;;;16.30;1.00;;;;;;6322149;27;20236;-53
2022/10/08 10:41:52;;;;;;;6.40;4.70;;;16.10;1.00;;;;;;6332185;27;20246;-55
2022/10/08 10:44:58;;;;;;;6.17;4.90;;;16.10;1.00;;;;;;6338875;27;20232;-54
2022/10/08 10:48:01;;;;;;;5.87;4.70;;;16.10;1.00;;;;;;6340801;27;20234;-55
2022/10/08 10:51:18;;;;;;;11.27;4.93;;;16.00;1.00;;;;;;6337023;27;20401;-54
2022/10/08 10:54:36;;;;;;;6.53;4.83;;;15.90;1.00;;;;;;6337967;27;20228;-55
2022/10/08 10:58:05;;;;;;;9.20;4.73;;;15.90;1.00;;;;;;6331856;27;20752;-54
2022/10/08 11:01:22;;;;;;;10.97;5.23;;;15.90;1.00;;;;;;6329895;27;20228;-54
2022/10/08 11:04:37;;;;;;;6.30;4.70;;;15.90;1.00;;;;;;6322206;27;20348;-54
2022/10/08 11:08:11;;;;;;;8.90;4.73;;;15.90;1.00;;;;;;6338247;27;20481;-55
2022/10/08 11:11:21;;;;;;;7.73;5.17;;;15.80;1.00;;;;;;6322594;28;20248;-54
2022/10/08 11:14:36;;;;;;;7.40;5.23;;;15.70;1.00;;;;;;6336288;27;20447;-54
2022/10/08 11:17:54;;;;;;;9.40;4.80;;;15.60;1.00;;;;;;6329574;27;20232;-55
2022/10/08 11:21:12;;;;;;;11.47;5.60;;;15.50;1.00;;;;;;6334452;27;20250;-53
2022/10/08 11:24:32;;;;;;;14.90;5.17;;;15.40;1.00;;;;;;6328908;28;20561;-54
2022/10/08 11:27:45;;;;;;;9.87;4.90;;;15.40;1.00;;;;;;6334913;27;20841;-54
2022/10/08 11:30:55;;;;;;;6.67;5.20;;;15.30;1.00;;;;;;6331373;27;20225;-56
2022/10/08 11:34:02;;;;;;;7.43;5.80;;;15.30;1.00;;;;;;6329523;27;20495;-54
2022/10/08 11:37:14;;;;;;;13.00;6.17;;;15.10;1.00;;;;;;6332596;27;20251;-54
2022/10/08 11:40:23;;;;;;;9.40;6.33;;;15.00;1.00;;;;;;6331967;27;20232;-53
2022/10/08 11:43:32;;;;;;;10.67;6.03;;;15.00;1.00;;;;;;6335211;27;20251;-53
2022/10/08 11:46:36;;;;;;;13.03;6.57;;;14.90;1.00;;;;;;6330951;27;20243;-54
2022/10/08 11:49:53;;;;;;;9.20;6.50;;;14.80;1.00;;;;;;6326568;27;20270;-54
2022/10/08 11:53:13;;;;;;;11.83;7.13;;;14.50;1.00;;;;;;6336575;27;20247;-53
2022/10/08 11:56:19;;;;;;;7.43;6.67;;;14.50;1.00;;;;;;6333508;27;20312;-54
2022/10/08 11:59:35;;;;;;;8.37;7.00;;;14.40;1.00;;;;;;6344849;27;20400;-53
2022/10/08 12:02:41;;;;;;;11.73;7.43;;;14.30;1.00;;;;;;6334871;27;20242;-54
2022/10/08 12:05:49;;;;;;;12.23;7.53;;;14.30;1.00;;;;;;6340562;27;20230;-54
2022/10/08 12:08:56;;;;;;;10.20;7.40;;;14.30;1.00;;;;;;6334071;27;20236;-53
2022/10/08 12:12:12;;;;;;;9.70;8.00;;;14.30;1.00;;;;;;6334151;27;20713;-53
2022/10/08 12:15:45;;;;;;;9.33;8.40;;;14.40;1.00;;;;;;6333945;27;20237;-54
2022/10/08 12:18:48;;;;;;;9.00;7.97;;;14.60;1.00;;;;;;6327438;28;20228;-54
2022/10/08 12:21:52;;;;;;;12.97;8.27;;;14.70;1.00;;;;;;6334827;27;20240;-54
2022/10/08 12:24:56;;;;;;;9.57;7.83;;;14.80;1.00;;;;;;6329752;27;20231;-54
2022/10/08 12:28:34;;;;;;;8.97;7.97;;;14.70;1.00;;;;;;6327576;27;20244;-54
2022/10/08 12:31:38;;;;;;;9.97;7.17;;;14.70;1.00;;;;;;6327758;28;20314;-55
2022/10/08 12:34:43;;;;;;;8.20;7.33;;;14.80;1.00;;;;;;6332174;28;20228;-55
2022/10/08 12:38:20;;;;;;;9.13;7.30;;;15.00;1.00;;;;;;6328267;27;20615;-53
2022/10/08 12:41:25;;;;;;;9.90;7.20;;;15.00;1.00;;;;;;6337457;27;20258;-53
2022/10/08 12:44:57;;;;;;;10.20;6.70;;;15.10;1.00;;;;;;6345724;27;20247;-54
2022/10/08 12:48:11;;;;;;;7.17;6.47;;;15.10;1.00;;;;;;6325488;27;20247;-55
2022/10/08 12:51:21;;;;;;;10.10;6.90;;;15.10;1.00;;;;;;6332874;27;20263;-54
2022/10/08 12:54:27;;;;;;;8.97;6.90;;;14.90;1.00;;;;;;6334602;27;20236;-55
2022/10/08 12:57:33;;;;;;;9.00;6.80;;;14.80;1.00;;;;;;6324334;27;20445;-53
2022/10/08 13:00:37;;;;;;;15.43;7.83;;;14.80;1.00;;;;;;6330518;27;20477;-55
2022/10/08 13:03:40;;;;;;;12.60;7.07;;;14.80;1.00;;;;;;6332544;27;20361;-55
2022/10/08 13:06:42;;;;;;;8.57;6.43;;;14.90;1.00;;;;;;6330950;27;20720;-53
2022/10/08 13:09:46;;;;;;;10.20;5.70;;;15.10;1.00;;;;;;6334822;27;20232;-53
2022/10/08 13:13:22;;;;;;;6.03;5.53;;;15.20;1.00;;;;;;6337275;27;20238;-54
2022/10/08 13:16:27;;;;;;;6.60;5.10;;;15.30;1.00;;;;;;6337333;27;20228;-54
2022/10/08 13:19:32;;;;;;;4.33;4.00;;;15.40;1.00;;;;;;6327464;27;20232;-55
2022/10/08 13:22:34;;;;;;;4.60;4.17;;;15.40;1.00;;;;;;6318828;28;20239;-55
2022/10/08 13:25:40;;;;;;;4.33;3.40;;;15.60;1.00;;;;;;6327667;27;20244;-56
2022/10/08 13:28:43;;;;;;;6.30;4.23;;;15.80;1.00;;;;;;6325816;28;20712;-55
2022/10/08 13:32:05;;;;;;;4.93;3.17;;;16.10;1.00;;;;;;6337251;27;20571;-55
2022/10/08 13:35:22;;;;;;;4.90;3.10;;;16.30;1.00;;;;;;6330068;27;20247;-55
2022/10/08 13:38:29;;;;;;;6.83;4.00;;;16.30;1.00;;;;;;6330962;27;20250;-54
2022/10/08 13:41:33;;;;;;;5.70;3.57;;;16.40;1.00;;;;;;6335774;27;20237;-54
2022/10/08 13:44:39;;;;;;;5.10;3.43;;;16.50;1.00;;;;;;6338166;27;20429;-54
2022/10/08 13:47:42;;;;;;;5.23;3.47;;;16.40;1.00;;;;;;6327785;27;20243;-54
2022/10/08 13:50:47;;;;;;;5.43;3.30;;;16.40;1.00;;;;;;6335559;27;20239;-53
2022/10/08 13:53:50;;;;;;;6.80;3.93;;;16.30;1.00;;;;;;6336602;27;20224;-55
2022/10/08 13:57:00;;;;;;;4.10;3.80;;;16.20;1.00;;;;;;6336039;27;20236;-54
2022/10/08 14:00:05;;;;;;;6.10;3.50;;;16.10;1.00;;;;;;6338823;27;20235;-54
2022/10/08 14:03:08;;;;;;;4.80;3.90;;;16.10;1.00;;;;;;6329207;28;20263;-53
2022/10/08 14:06:11;;;;;;;9.60;3.67;;;16.10;1.00;;;;;;6335512;27;20720;-53
2022/10/08 14:09:17;;;;;;;5.27;3.83;;;16.10;1.00;;;;;;6327343;27;20237;-54
2022/10/08 14:12:25;;;;;;;5.37;3.60;;;16.10;1.00;;;;;;6336415;27;20250;-55
2022/10/08 14:15:28;;;;;;;5.13;3.40;;;16.10;1.00;;;;;;6336154;27;20354;-53
2022/10/08 14:18:30;;;;;;;3.67;3.40;;;16.10;1.00;;;;;;6325105;27;20259;-55
2022/10/08 14:21:34;;;;;;;7.20;3.57;;;16.20;1.00;;;;;;6336801;27;20731;-53
2022/10/08 14:24:37;;;;;;;4.03;3.60;;;16.20;1.00;;;;;;6338239;27;20242;-56
2022/10/08 14:27:41;;;;;;;4.87;3.67;;;16.30;1.00;;;;;;6330756;27;20236;-55
2022/10/08 14:30:44;;;;;;;3.73;3.43;;;16.20;1.00;;;;;;6336680;27;20245;-54
2022/10/08 14:33:47;;;;;;;6.23;3.70;;;16.20;1.00;;;;;;6331104;27;20244;-55
2022/10/08 14:36:54;;;;;;;4.00;3.10;;;16.10;1.00;;;;;;6337947;27;20223;-55
2022/10/08 14:39:56;;;;;;;4.77;3.80;;;16.00;1.00;;;;;;6324112;28;20235;-53
2022/10/08 14:43:00;;;;;;;6.37;3.40;;;15.80;1.00;;;;;;6334780;27;20608;-55
2022/10/08 14:46:03;;;;;;;4.10;3.47;;;15.70;1.00;;;;;;6334479;27;20244;-52
2022/10/08 14:49:06;;;;;;;4.77;3.23;;;15.40;1.00;;;;;;6342838;27;20560;-53
2022/10/08 14:52:09;;;;;;;5.50;2.37;;;14.90;1.00;;;;;;6340469;27;20719;-52
2022/10/08 14:55:12;;;;;;;2.30;2.20;;;14.50;1.00;;;;;;6336820;27;20736;-52
2022/10/08 14:58:16;;;;;;;2.37;2.20;;;14.30;1.00;;;;;;6332286;27;20315;-53
2022/10/08 15:01:19;;;;;;;2.23;2.10;;;14.20;1.00;;;;;;6344281;27;20735;-53
2022/10/08 15:04:21;;;;;;;1.93;1.93;;;14.00;1.00;;;;;;6342601;27;20235;-54
2022/10/08 15:07:24;;;;;;;2.63;2.43;;;13.90;1.00;;;;;;6335203;27;20232;-55
2022/10/08 15:10:28;;;;;;;3.60;2.60;;;13.70;1.00;;;;;;6325906;27;20705;-54
2022/10/08 15:13:32;;;;;;;2.60;2.50;;;13.60;1.00;;;;;;6330828;28;20266;-53
2022/10/08 15:16:35;;;;;;;2.57;2.47;;;13.50;1.00;;;;;;6338823;27;20228;-55
2022/10/08 15:19:38;;;;;;;3.40;2.60;;;13.40;1.00;;;;;;6335859;27;20238;-53
2022/10/08 15:22:41;;;;;;;3.20;3.00;;;13.40;1.00;;;;;;6335035;27;20902;-54
2022/10/08 15:25:43;;;;;;;2.97;2.80;;;13.40;1.00;;;;;;6345126;27;20251;-53
2022/10/08 15:28:51;;;;;;;3.03;2.67;;;13.40;1.00;;;;;;6331235;27;20236;-54
2022/10/08 15:31:54;;;;;;;5.20;2.87;;;13.30;1.00;;;;;;6329105;27;20248;-54
2022/10/08 15:34:57;;;;;;;2.73;2.53;;;13.40;1.00;;;;;;6331349;27;20244;-53
2022/10/08 15:38:00;;;;;;;2.43;2.30;;;13.40;1.00;;;;;;6334949;27;20708;-53
2022/10/08 15:41:03;;;;;;;3.67;2.57;;;13.30;1.00;;;;;;6333102;27;20239;-54
2022/10/08 15:44:10;;;;;;;2.23;2.13;;;13.30;1.00;;;;;;6337304;27;20245;-55
2022/10/08 15:47:13;;;;;;;2.57;2.37;;;13.20;1.00;;;;;;6338764;27;20232;-54
2022/10/08 15:50:16;;;;;;;2.43;2.20;;;13.20;1.00;;;;;;6337741;27;20231;-54
2022/10/08 15:53:19;;;;;;;2.77;2.57;;;13.10;1.00;;;;;;6332587;27;20775;-55
2022/10/08 15:56:22;;;;;;;2.50;2.40;;;13.00;1.00;;;;;;6332983;27;20235;-53
2022/10/08 15:59:26;;;;;;;2.70;2.60;;;12.90;1.00;;;;;;6338975;27;20849;-54
2022/10/08 16:02:29;;;;;;;2.37;2.20;;;12.90;1.00;;;;;;6326234;27;20423;-60
2022/10/08 16:05:31;;;;;;;3.20;2.40;;;12.90;1.00;;;;;;6343006;27;20810;-53
2022/10/08 16:08:38;;;;;;;3.20;2.20;;;12.80;1.00;;;;;;6334130;27;20302;-54
2022/10/08 16:11:41;;;;;;;5.40;2.27;;;12.80;1.00;;;;;;6334933;27;20393;-54
2022/10/08 16:14:45;;;;;;;3.17;2.53;;;12.70;1.00;;;;;;6338863;27;20606;-53
2022/10/08 16:17:48;;;;;;;4.13;2.60;;;12.70;1.00;;;;;;6329661;27;20712;-54
2022/10/08 16:20:51;;;;;;;2.73;2.50;;;12.60;1.00;;;;;;6332618;27;20228;-53